8分钟前
罗盘
风向 的 风向 180° Texel International Airport 3/21
风: 8 千吨, 3 beaufort
0 500 1.500 3.000 5.000 8.000 10.000
BKN 200 ft
OVC 400 ft
METAR EHKD 040055Z AUTO 18008KT 2800 BR BKN002 OVC004 06/06 Q0997 AMB

METAR定义 | 嵌入

24小时趋势

航班类别VFRLIFR
温度8 °C4 °C
风速26 千吨0 千吨
能见度10 公里+0 米

更多历史数据

下载我们的安卓应用程序

从你的主屏幕上轻松地访问你的航空天气。
只需一次付费,您就可以获得无广告的体验。

您会帮助我们保持Metar-Taf.com正常运行吗?
您的贡献有助于网站的进一步开发并支付费用。

没有更多广告

您是捐款5美元还是更多?然后,我们将永远不会再向您展示广告,这是我们永恒的感谢!
捐赠前先登录

METAR Texel International Airport

Texel International Airport是Texel,荷兰中的中型机场。 机场有{a,plural,=1{一条跑道} other{#跑道}}: 3/21 和 12/30

Texel International Airport最近未发布观察结果。相反,我们向您显示22 km的报告De Kooy Airfield。 该报告是针对2021年12月4日 01:55, 当地时间进行的。

机场观察

风来自南 (180°)方向,速度为8 千吨。

可见度为2,8 公里。

有碎云在200 ft的高度 和 乌云密布在400 ft的高度。 破损或更高的上限为200 ft。

当前天气为薄雾。 温度为6 °C,阵风为2 °C。 露点为6 °C,相对湿度为100%。 海平面上的气压为997 压力 (QNH)。

白天

今天,太阳从08:36升起,在16:25降落。 这适用于Texel International Airport,世界夏令时可能有所不同。 当地时间与世界标准时间之间的时差为+1 小时。 当前,没有夏令时有效。

公司介绍

在这个机场,你可以找到跳伞中心 和 飞行学校。 这个机场上的公司有Vliegles.nl, Paracentrum Texel, Zweefvliegclub Texel 和 Tessel Air。

体会

你可以在这个机场与经验丰富的教练进行双人跳伞。 这些跳伞包括自由落体。 在Texel International Airport进行跳伞的费用是€ 209。 在这里预订Skydive Texel

您是否要在网站上Texel International Airport飞行的天气? 阅读更多   自由!